sensor_id;sensor_type;location;lat;lon;timestamp;P1;durP1;ratioP1;P2;durP2;ratioP2
21168;SDS011;10742;51.816;8.662;2022-07-18T00:02:57;4.57;;;1.90;;
21168;SDS011;10742;51.816;8.662;2022-07-18T00:06:18;6.40;;;2.00;;
21168;SDS011;10742;51.816;8.662;2022-07-18T00:09:40;3.00;;;1.70;;
21168;SDS011;10742;51.816;8.662;2022-07-18T00:13:04;2.73;;;1.70;;
21168;SDS011;10742;51.816;8.662;2022-07-18T00:16:25;7.17;;;1.63;;
21168;SDS011;10742;51.816;8.662;2022-07-18T00:19:47;3.60;;;1.80;;
21168;SDS011;10742;51.816;8.662;2022-07-18T00:23:10;4.33;;;1.70;;
21168;SDS011;10742;51.816;8.662;2022-07-18T00:26:33;4.63;;;1.57;;
21168;SDS011;10742;51.816;8.662;2022-07-18T00:29:59;1.87;;;1.60;;
21168;SDS011;10742;51.816;8.662;2022-07-18T00:33:21;3.47;;;1.50;;
21168;SDS011;10742;51.816;8.662;2022-07-18T00:36:44;4.27;;;1.90;;
21168;SDS011;10742;51.816;8.662;2022-07-18T00:40:06;5.23;;;1.63;;
21168;SDS011;10742;51.816;8.662;2022-07-18T00:43:30;3.70;;;1.73;;
21168;SDS011;10742;51.816;8.662;2022-07-18T00:46:52;3.70;;;1.50;;
21168;SDS011;10742;51.816;8.662;2022-07-18T00:50:18;4.93;;;1.43;;
21168;SDS011;10742;51.816;8.662;2022-07-18T00:53:41;7.87;;;1.70;;
21168;SDS011;10742;51.816;8.662;2022-07-18T00:57:03;3.63;;;1.80;;
21168;SDS011;10742;51.816;8.662;2022-07-18T01:00:25;4.53;;;1.50;;
21168;SDS011;10742;51.816;8.662;2022-07-18T01:04:06;6.07;;;1.80;;
21168;SDS011;10742;51.816;8.662;2022-07-18T01:07:28;3.13;;;1.60;;
21168;SDS011;10742;51.816;8.662;2022-07-18T01:10:50;2.20;;;1.50;;
21168;SDS011;10742;51.816;8.662;2022-07-18T01:14:14;2.50;;;1.60;;
21168;SDS011;10742;51.816;8.662;2022-07-18T01:17:37;2.27;;;1.60;;
21168;SDS011;10742;51.816;8.662;2022-07-18T01:20:59;2.53;;;1.70;;
21168;SDS011;10742;51.816;8.662;2022-07-18T01:24:21;4.50;;;1.80;;
21168;SDS011;10742;51.816;8.662;2022-07-18T01:27:43;3.10;;;1.90;;
21168;SDS011;10742;51.816;8.662;2022-07-18T01:31:05;3.50;;;1.87;;
21168;SDS011;10742;51.816;8.662;2022-07-18T01:34:27;4.90;;;1.70;;
21168;SDS011;10742;51.816;8.662;2022-07-18T01:37:54;3.67;;;1.53;;
21168;SDS011;10742;51.816;8.662;2022-07-18T01:41:18;3.10;;;1.70;;
21168;SDS011;10742;51.816;8.662;2022-07-18T01:44:41;6.20;;;1.60;;
21168;SDS011;10742;51.816;8.662;2022-07-18T01:48:04;5.37;;;1.87;;
21168;SDS011;10742;51.816;8.662;2022-07-18T01:51:27;5.03;;;2.10;;
21168;SDS011;10742;51.816;8.662;2022-07-18T01:54:48;5.13;;;1.80;;
21168;SDS011;10742;51.816;8.662;2022-07-18T01:58:10;4.17;;;1.90;;
21168;SDS011;10742;51.816;8.662;2022-07-18T02:01:35;2.63;;;1.57;;
21168;SDS011;10742;51.816;8.662;2022-07-18T02:04:56;3.47;;;1.60;;
21168;SDS011;10742;51.816;8.662;2022-07-18T02:08:22;9.13;;;1.90;;
21168;SDS011;10742;51.816;8.662;2022-07-18T02:11:44;3.00;;;1.60;;
21168;SDS011;10742;51.816;8.662;2022-07-18T02:15:06;4.17;;;1.80;;
21168;SDS011;10742;51.816;8.662;2022-07-18T02:18:29;3.53;;;1.70;;
21168;SDS011;10742;51.816;8.662;2022-07-18T02:21:54;5.87;;;1.80;;
21168;SDS011;10742;51.816;8.662;2022-07-18T02:25:16;6.47;;;1.77;;
21168;SDS011;10742;51.816;8.662;2022-07-18T02:28:37;6.03;;;1.60;;
21168;SDS011;10742;51.816;8.662;2022-07-18T02:31:59;2.63;;;1.70;;
21168;SDS011;10742;51.816;8.662;2022-07-18T02:35:20;5.40;;;2.00;;
21168;SDS011;10742;51.816;8.662;2022-07-18T02:38:41;3.67;;;1.83;;
21168;SDS011;10742;51.816;8.662;2022-07-18T02:42:03;5.80;;;1.60;;
21168;SDS011;10742;51.816;8.662;2022-07-18T02:45:25;2.83;;;1.77;;
21168;SDS011;10742;51.816;8.662;2022-07-18T02:48:47;2.23;;;1.70;;
21168;SDS011;10742;51.816;8.662;2022-07-18T02:52:08;3.83;;;1.70;;
21168;SDS011;10742;51.816;8.662;2022-07-18T02:55:29;4.10;;;1.63;;
21168;SDS011;10742;51.816;8.662;2022-07-18T02:58:51;2.57;;;1.93;;
21168;SDS011;10742;51.816;8.662;2022-07-18T03:02:12;4.93;;;1.57;;
21168;SDS011;10742;51.816;8.662;2022-07-18T03:05:34;5.83;;;2.07;;
21168;SDS011;10742;51.816;8.662;2022-07-18T03:08:55;3.17;;;1.60;;
21168;SDS011;10742;51.816;8.662;2022-07-18T03:12:16;5.23;;;1.87;;
21168;SDS011;10742;51.816;8.662;2022-07-18T03:15:38;3.60;;;1.70;;
21168;SDS011;10742;51.816;8.662;2022-07-18T03:19:01;3.37;;;1.97;;
21168;SDS011;10742;51.816;8.662;2022-07-18T03:22:23;2.57;;;1.80;;
21168;SDS011;10742;51.816;8.662;2022-07-18T03:25:44;5.47;;;1.90;;
21168;SDS011;10742;51.816;8.662;2022-07-18T03:29:05;7.03;;;1.80;;
21168;SDS011;10742;51.816;8.662;2022-07-18T03:32:27;2.40;;;1.63;;
21168;SDS011;10742;51.816;8.662;2022-07-18T03:35:48;5.43;;;1.90;;
21168;SDS011;10742;51.816;8.662;2022-07-18T03:39:10;2.57;;;1.90;;
21168;SDS011;10742;51.816;8.662;2022-07-18T03:42:31;3.40;;;1.77;;
21168;SDS011;10742;51.816;8.662;2022-07-18T03:45:52;3.93;;;2.00;;
21168;SDS011;10742;51.816;8.662;2022-07-18T03:49:14;4.43;;;1.70;;
21168;SDS011;10742;51.816;8.662;2022-07-18T03:52:35;4.30;;;2.00;;
21168;SDS011;10742;51.816;8.662;2022-07-18T03:55:56;5.30;;;2.10;;
21168;SDS011;10742;51.816;8.662;2022-07-18T03:59:18;4.77;;;2.00;;
21168;SDS011;10742;51.816;8.662;2022-07-18T04:02:40;5.70;;;2.00;;
21168;SDS011;10742;51.816;8.662;2022-07-18T04:06:03;5.67;;;2.10;;
21168;SDS011;10742;51.816;8.662;2022-07-18T04:09:25;3.20;;;2.07;;
21168;SDS011;10742;51.816;8.662;2022-07-18T04:12:48;5.03;;;2.10;;
21168;SDS011;10742;51.816;8.662;2022-07-18T04:16:14;5.70;;;2.03;;
21168;SDS011;10742;51.816;8.662;2022-07-18T04:19:36;3.60;;;1.83;;
21168;SDS011;10742;51.816;8.662;2022-07-18T04:22:58;3.77;;;2.10;;
21168;SDS011;10742;51.816;8.662;2022-07-18T04:26:20;6.70;;;2.10;;
21168;SDS011;10742;51.816;8.662;2022-07-18T04:29:42;3.07;;;1.90;;
21168;SDS011;10742;51.816;8.662;2022-07-18T04:33:05;3.83;;;1.97;;
21168;SDS011;10742;51.816;8.662;2022-07-18T04:36:27;4.97;;;1.90;;
21168;SDS011;10742;51.816;8.662;2022-07-18T04:39:49;4.87;;;1.87;;
21168;SDS011;10742;51.816;8.662;2022-07-18T04:43:10;5.10;;;1.93;;
21168;SDS011;10742;51.816;8.662;2022-07-18T04:46:31;4.47;;;1.97;;
21168;SDS011;10742;51.816;8.662;2022-07-18T04:49:53;6.20;;;2.00;;
21168;SDS011;10742;51.816;8.662;2022-07-18T04:53:15;5.87;;;1.90;;
21168;SDS011;10742;51.816;8.662;2022-07-18T04:56:37;4.90;;;2.07;;
21168;SDS011;10742;51.816;8.662;2022-07-18T04:59:59;4.83;;;2.00;;
21168;SDS011;10742;51.816;8.662;2022-07-18T05:03:21;8.30;;;2.30;;
21168;SDS011;10742;51.816;8.662;2022-07-18T05:06:42;5.87;;;1.90;;
21168;SDS011;10742;51.816;8.662;2022-07-18T05:10:04;5.10;;;1.80;;
21168;SDS011;10742;51.816;8.662;2022-07-18T05:13:27;6.60;;;2.20;;
21168;SDS011;10742;51.816;8.662;2022-07-18T05:16:49;6.83;;;2.50;;
21168;SDS011;10742;51.816;8.662;2022-07-18T05:20:11;8.23;;;2.10;;
21168;SDS011;10742;51.816;8.662;2022-07-18T05:23:35;4.33;;;1.80;;
21168;SDS011;10742;51.816;8.662;2022-07-18T05:26:56;3.97;;;1.90;;
21168;SDS011;10742;51.816;8.662;2022-07-18T05:30:17;8.33;;;2.20;;
21168;SDS011;10742;51.816;8.662;2022-07-18T05:33:40;5.60;;;2.13;;
21168;SDS011;10742;51.816;8.662;2022-07-18T05:37:01;7.37;;;1.90;;
21168;SDS011;10742;51.816;8.662;2022-07-18T05:40:22;3.63;;;2.20;;
21168;SDS011;10742;51.816;8.662;2022-07-18T05:43:44;6.20;;;2.10;;
21168;SDS011;10742;51.816;8.662;2022-07-18T05:47:06;6.40;;;2.20;;
21168;SDS011;10742;51.816;8.662;2022-07-18T05:50:27;5.77;;;2.37;;
21168;SDS011;10742;51.816;8.662;2022-07-18T05:53:48;7.63;;;1.93;;
21168;SDS011;10742;51.816;8.662;2022-07-18T05:57:10;4.03;;;1.80;;
21168;SDS011;10742;51.816;8.662;2022-07-18T06:00:32;4.47;;;1.87;;
21168;SDS011;10742;51.816;8.662;2022-07-18T06:03:54;5.33;;;1.73;;
21168;SDS011;10742;51.816;8.662;2022-07-18T06:07:15;7.10;;;1.73;;
21168;SDS011;10742;51.816;8.662;2022-07-18T06:10:36;4.05;;;1.52;;
21168;SDS011;10742;51.816;8.662;2022-07-18T06:14:00;3.72;;;1.40;;
21168;SDS011;10742;51.816;8.662;2022-07-18T06:17:24;3.78;;;1.65;;
21168;SDS011;10742;51.816;8.662;2022-07-18T06:20:46;5.22;;;1.48;;
21168;SDS011;10742;51.816;8.662;2022-07-18T06:24:08;3.15;;;1.80;;
21168;SDS011;10742;51.816;8.662;2022-07-18T06:27:29;2.38;;;1.50;;
21168;SDS011;10742;51.816;8.662;2022-07-18T06:30:51;3.88;;;1.58;;
21168;SDS011;10742;51.816;8.662;2022-07-18T06:34:13;3.20;;;1.30;;
21168;SDS011;10742;51.816;8.662;2022-07-18T06:37:35;1.90;;;1.38;;
21168;SDS011;10742;51.816;8.662;2022-07-18T06:40:56;6.03;;;1.70;;
21168;SDS011;10742;51.816;8.662;2022-07-18T06:44:18;6.05;;;2.00;;
21168;SDS011;10742;51.816;8.662;2022-07-18T06:47:39;4.70;;;1.75;;
21168;SDS011;10742;51.816;8.662;2022-07-18T06:51:02;4.65;;;1.58;;
21168;SDS011;10742;51.816;8.662;2022-07-18T06:54:25;2.08;;;1.60;;
21168;SDS011;10742;51.816;8.662;2022-07-18T06:57:48;3.67;;;1.75;;
21168;SDS011;10742;51.816;8.662;2022-07-18T07:01:10;4.43;;;1.70;;
21168;SDS011;10742;51.816;8.662;2022-07-18T07:04:31;4.53;;;1.85;;
21168;SDS011;10742;51.816;8.662;2022-07-18T07:07:53;5.57;;;1.80;;
21168;SDS011;10742;51.816;8.662;2022-07-18T07:11:14;4.25;;;1.95;;
21168;SDS011;10742;51.816;8.662;2022-07-18T07:14:36;7.18;;;1.80;;
21168;SDS011;10742;51.816;8.662;2022-07-18T07:17:58;5.30;;;1.63;;
21168;SDS011;10742;51.816;8.662;2022-07-18T07:21:20;7.03;;;1.58;;
21168;SDS011;10742;51.816;8.662;2022-07-18T07:24:41;3.85;;;1.80;;
21168;SDS011;10742;51.816;8.662;2022-07-18T07:28:03;2.85;;;1.90;;
21168;SDS011;10742;51.816;8.662;2022-07-18T07:31:25;7.07;;;1.83;;
21168;SDS011;10742;51.816;8.662;2022-07-18T07:34:47;9.02;;;1.92;;
21168;SDS011;10742;51.816;8.662;2022-07-18T07:38:08;5.32;;;1.50;;
21168;SDS011;10742;51.816;8.662;2022-07-18T07:41:31;5.53;;;1.85;;
21168;SDS011;10742;51.816;8.662;2022-07-18T07:44:52;3.72;;;1.70;;
21168;SDS011;10742;51.816;8.662;2022-07-18T07:48:16;4.60;;;1.70;;
21168;SDS011;10742;51.816;8.662;2022-07-18T07:51:37;6.75;;;1.92;;
21168;SDS011;10742;51.816;8.662;2022-07-18T07:54:59;3.10;;;1.75;;
21168;SDS011;10742;51.816;8.662;2022-07-18T07:58:20;9.43;;;1.88;;
21168;SDS011;10742;51.816;8.662;2022-07-18T08:01:42;3.42;;;1.33;;
21168;SDS011;10742;51.816;8.662;2022-07-18T08:05:03;3.35;;;1.60;;
21168;SDS011;10742;51.816;8.662;2022-07-18T08:08:25;7.47;;;1.42;;
21168;SDS011;10742;51.816;8.662;2022-07-18T08:11:47;6.18;;;1.85;;
21168;SDS011;10742;51.816;8.662;2022-07-18T08:15:09;3.22;;;1.40;;
21168;SDS011;10742;51.816;8.662;2022-07-18T08:18:31;2.45;;;1.45;;
21168;SDS011;10742;51.816;8.662;2022-07-18T08:21:52;5.38;;;1.60;;
21168;SDS011;10742;51.816;8.662;2022-07-18T08:25:13;3.38;;;1.70;;
21168;SDS011;10742;51.816;8.662;2022-07-18T08:28:34;6.80;;;1.67;;
21168;SDS011;10742;51.816;8.662;2022-07-18T08:31:56;5.10;;;1.40;;
21168;SDS011;10742;51.816;8.662;2022-07-18T08:35:17;2.92;;;1.40;;
21168;SDS011;10742;51.816;8.662;2022-07-18T08:38:39;5.40;;;1.60;;
21168;SDS011;10742;51.816;8.662;2022-07-18T08:42:01;5.38;;;1.27;;
21168;SDS011;10742;51.816;8.662;2022-07-18T08:45:24;7.63;;;1.35;;
21168;SDS011;10742;51.816;8.662;2022-07-18T08:48:46;2.17;;;1.20;;
21168;SDS011;10742;51.816;8.662;2022-07-18T08:52:08;1.85;;;1.30;;
21168;SDS011;10742;51.816;8.662;2022-07-18T08:55:38;4.50;;;1.55;;
21168;SDS011;10742;51.816;8.662;2022-07-18T08:59:00;2.03;;;1.10;;
21168;SDS011;10742;51.816;8.662;2022-07-18T09:02:24;3.25;;;1.63;;
21168;SDS011;10742;51.816;8.662;2022-07-18T09:05:59;6.70;;;1.50;;
21168;SDS011;10742;51.816;8.662;2022-07-18T09:09:24;4.80;;;1.40;;
21168;SDS011;10742;51.816;8.662;2022-07-18T09:12:56;2.80;;;1.33;;
21168;SDS011;10742;51.816;8.662;2022-07-18T09:16:22;2.28;;;1.25;;
21168;SDS011;10742;51.816;8.662;2022-07-18T09:20:04;2.13;;;1.42;;
21168;SDS011;10742;51.816;8.662;2022-07-18T09:23:33;2.30;;;1.42;;
21168;SDS011;10742;51.816;8.662;2022-07-18T09:26:56;5.30;;;1.45;;
21168;SDS011;10742;51.816;8.662;2022-07-18T09:33:50;2.95;;;1.55;;
21168;SDS011;10742;51.816;8.662;2022-07-18T09:37:13;1.92;;;1.30;;
21168;SDS011;10742;51.816;8.662;2022-07-18T09:40:36;2.08;;;1.20;;
21168;SDS011;10742;51.816;8.662;2022-07-18T09:43:57;2.95;;;1.30;;
21168;SDS011;10742;51.816;8.662;2022-07-18T09:47:19;3.53;;;1.35;;
21168;SDS011;10742;51.816;8.662;2022-07-18T09:50:42;3.15;;;1.55;;
21168;SDS011;10742;51.816;8.662;2022-07-18T09:54:10;4.35;;;1.70;;
21168;SDS011;10742;51.816;8.662;2022-07-18T09:57:32;3.97;;;1.20;;
21168;SDS011;10742;51.816;8.662;2022-07-18T10:00:55;4.40;;;1.48;;
21168;SDS011;10742;51.816;8.662;2022-07-18T10:04:18;1.63;;;1.35;;
21168;SDS011;10742;51.816;8.662;2022-07-18T10:07:39;3.50;;;1.40;;
21168;SDS011;10742;51.816;8.662;2022-07-18T10:11:01;5.57;;;1.90;;
21168;SDS011;10742;51.816;8.662;2022-07-18T10:14:24;6.20;;;1.45;;
21168;SDS011;10742;51.816;8.662;2022-07-18T10:17:48;3.28;;;1.65;;
21168;SDS011;10742;51.816;8.662;2022-07-18T10:21:11;3.50;;;1.40;;
21168;SDS011;10742;51.816;8.662;2022-07-18T10:24:33;2.95;;;1.45;;
21168;SDS011;10742;51.816;8.662;2022-07-18T10:28:03;6.47;;;1.50;;
21168;SDS011;10742;51.816;8.662;2022-07-18T10:31:28;3.50;;;1.70;;
21168;SDS011;10742;51.816;8.662;2022-07-18T10:34:49;2.65;;;1.40;;
21168;SDS011;10742;51.816;8.662;2022-07-18T10:38:20;4.90;;;1.38;;
21168;SDS011;10742;51.816;8.662;2022-07-18T10:45:08;3.28;;;1.50;;
21168;SDS011;10742;51.816;8.662;2022-07-18T10:49:08;2.28;;;1.33;;
21168;SDS011;10742;51.816;8.662;2022-07-18T10:55:51;3.60;;;1.95;;
21168;SDS011;10742;51.816;8.662;2022-07-18T10:59:15;5.15;;;1.50;;
21168;SDS011;10742;51.816;8.662;2022-07-18T11:02:44;3.05;;;1.38;;
21168;SDS011;10742;51.816;8.662;2022-07-18T11:06:08;2.78;;;1.35;;
21168;SDS011;10742;51.816;8.662;2022-07-18T11:13:44;4.00;;;1.85;;
21168;SDS011;10742;51.816;8.662;2022-07-18T11:17:06;2.28;;;1.38;;
21168;SDS011;10742;51.816;8.662;2022-07-18T11:20:35;3.75;;;1.63;;
21168;SDS011;10742;51.816;8.662;2022-07-18T11:24:05;2.47;;;1.60;;
21168;SDS011;10742;51.816;8.662;2022-07-18T11:27:30;3.33;;;1.52;;
21168;SDS011;10742;51.816;8.662;2022-07-18T11:30:58;3.78;;;1.70;;
21168;SDS011;10742;51.816;8.662;2022-07-18T11:34:25;3.22;;;1.80;;
21168;SDS011;10742;51.816;8.662;2022-07-18T11:37:56;3.22;;;1.60;;
21168;SDS011;10742;51.816;8.662;2022-07-18T11:41:24;3.25;;;1.60;;
21168;SDS011;10742;51.816;8.662;2022-07-18T11:44:46;4.28;;;1.67;;
21168;SDS011;10742;51.816;8.662;2022-07-18T11:48:21;4.88;;;1.75;;
21168;SDS011;10742;51.816;8.662;2022-07-18T11:51:44;5.45;;;1.70;;
21168;SDS011;10742;51.816;8.662;2022-07-18T11:55:06;2.63;;;1.58;;
21168;SDS011;10742;51.816;8.662;2022-07-18T11:58:34;5.65;;;1.60;;
21168;SDS011;10742;51.816;8.662;2022-07-18T12:01:57;3.72;;;1.70;;
21168;SDS011;10742;51.816;8.662;2022-07-18T12:05:18;1.73;;;1.52;;
21168;SDS011;10742;51.816;8.662;2022-07-18T12:08:57;2.47;;;1.52;;
21168;SDS011;10742;51.816;8.662;2022-07-18T12:12:24;3.50;;;1.73;;
21168;SDS011;10742;51.816;8.662;2022-07-18T12:15:45;2.08;;;1.63;;
21168;SDS011;10742;51.816;8.662;2022-07-18T12:26:31;2.78;;;1.70;;
21168;SDS011;10742;51.816;8.662;2022-07-18T12:30:14;3.58;;;1.63;;
21168;SDS011;10742;51.816;8.662;2022-07-18T12:33:44;5.72;;;1.63;;
21168;SDS011;10742;51.816;8.662;2022-07-18T12:37:26;1.60;;;1.50;;
21168;SDS011;10742;51.816;8.662;2022-07-18T12:44:13;3.30;;;1.60;;
21168;SDS011;10742;51.816;8.662;2022-07-18T12:47:35;4.20;;;1.88;;
21168;SDS011;10742;51.816;8.662;2022-07-18T12:51:02;2.13;;;1.50;;
21168;SDS011;10742;51.816;8.662;2022-07-18T12:54:25;1.92;;;1.50;;
21168;SDS011;10742;51.816;8.662;2022-07-18T12:57:47;3.03;;;1.65;;
21168;SDS011;10742;51.816;8.662;2022-07-18T13:01:08;2.13;;;1.77;;
21168;SDS011;10742;51.816;8.662;2022-07-18T13:04:30;3.22;;;2.00;;
21168;SDS011;10742;51.816;8.662;2022-07-18T13:07:52;4.93;;;2.60;;
21168;SDS011;10742;51.816;8.662;2022-07-18T13:11:13;3.90;;;1.67;;
21168;SDS011;10742;51.816;8.662;2022-07-18T13:14:34;2.42;;;1.70;;
21168;SDS011;10742;51.816;8.662;2022-07-18T13:17:56;2.28;;;1.73;;
21168;SDS011;10742;51.816;8.662;2022-07-18T13:21:18;2.00;;;1.80;;
21168;SDS011;10742;51.816;8.662;2022-07-18T13:24:39;3.15;;;1.45;;
21168;SDS011;10742;51.816;8.662;2022-07-18T13:28:01;4.05;;;1.70;;
21168;SDS011;10742;51.816;8.662;2022-07-18T13:31:22;3.17;;;1.65;;
21168;SDS011;10742;51.816;8.662;2022-07-18T13:34:44;2.95;;;1.73;;
21168;SDS011;10742;51.816;8.662;2022-07-18T13:38:05;3.25;;;1.60;;
21168;SDS011;10742;51.816;8.662;2022-07-18T13:41:27;2.05;;;1.60;;
21168;SDS011;10742;51.816;8.662;2022-07-18T13:44:49;2.13;;;1.80;;
21168;SDS011;10742;51.816;8.662;2022-07-18T13:48:10;2.00;;;1.42;;
21168;SDS011;10742;51.816;8.662;2022-07-18T13:51:32;2.15;;;1.48;;
21168;SDS011;10742;51.816;8.662;2022-07-18T13:54:53;6.40;;;1.92;;
21168;SDS011;10742;51.816;8.662;2022-07-18T13:58:15;2.33;;;1.73;;
21168;SDS011;10742;51.816;8.662;2022-07-18T14:01:39;4.07;;;1.77;;
21168;SDS011;10742;51.816;8.662;2022-07-18T14:05:00;2.70;;;1.60;;
21168;SDS011;10742;51.816;8.662;2022-07-18T14:08:37;2.45;;;1.65;;
21168;SDS011;10742;51.816;8.662;2022-07-18T14:12:00;5.03;;;1.65;;
21168;SDS011;10742;51.816;8.662;2022-07-18T14:15:22;5.00;;;2.15;;
21168;SDS011;10742;51.816;8.662;2022-07-18T14:18:43;7.38;;;2.10;;
21168;SDS011;10742;51.816;8.662;2022-07-18T14:22:05;2.05;;;1.40;;
21168;SDS011;10742;51.816;8.662;2022-07-18T14:25:27;1.83;;;1.60;;
21168;SDS011;10742;51.816;8.662;2022-07-18T14:28:48;2.88;;;1.70;;
21168;SDS011;10742;51.816;8.662;2022-07-18T14:32:10;2.40;;;1.50;;
21168;SDS011;10742;51.816;8.662;2022-07-18T14:35:31;2.95;;;1.98;;
21168;SDS011;10742;51.816;8.662;2022-07-18T14:38:52;2.35;;;1.77;;
21168;SDS011;10742;51.816;8.662;2022-07-18T14:42:14;7.38;;;1.63;;
21168;SDS011;10742;51.816;8.662;2022-07-18T14:45:35;2.75;;;1.80;;
21168;SDS011;10742;51.816;8.662;2022-07-18T14:49:02;1.70;;;1.60;;
21168;SDS011;10742;51.816;8.662;2022-07-18T14:52:24;4.18;;;1.80;;
21168;SDS011;10742;51.816;8.662;2022-07-18T14:55:46;2.03;;;1.60;;
21168;SDS011;10742;51.816;8.662;2022-07-18T14:59:07;1.60;;;1.40;;
21168;SDS011;10742;51.816;8.662;2022-07-18T15:02:29;1.90;;;1.70;;
21168;SDS011;10742;51.816;8.662;2022-07-18T15:05:51;5.75;;;1.55;;
21168;SDS011;10742;51.816;8.662;2022-07-18T15:09:12;6.43;;;1.88;;
21168;SDS011;10742;51.816;8.662;2022-07-18T15:12:34;3.80;;;1.60;;
21168;SDS011;10742;51.816;8.662;2022-07-18T15:15:56;2.47;;;1.70;;
21168;SDS011;10742;51.816;8.662;2022-07-18T15:19:17;2.13;;;1.52;;
21168;SDS011;10742;51.816;8.662;2022-07-18T15:22:38;3.88;;;1.55;;
21168;SDS011;10742;51.816;8.662;2022-07-18T15:26:00;2.13;;;1.60;;
21168;SDS011;10742;51.816;8.662;2022-07-18T15:29:21;3.75;;;1.58;;
21168;SDS011;10742;51.816;8.662;2022-07-18T15:32:42;1.70;;;1.50;;
21168;SDS011;10742;51.816;8.662;2022-07-18T15:36:04;2.67;;;1.60;;
21168;SDS011;10742;51.816;8.662;2022-07-18T15:39:25;1.83;;;1.63;;
21168;SDS011;10742;51.816;8.662;2022-07-18T15:42:47;2.55;;;1.65;;
21168;SDS011;10742;51.816;8.662;2022-07-18T15:46:08;1.45;;;1.35;;
21168;SDS011;10742;51.816;8.662;2022-07-18T15:49:29;1.80;;;1.35;;
21168;SDS011;10742;51.816;8.662;2022-07-18T15:52:51;5.60;;;2.03;;
21168;SDS011;10742;51.816;8.662;2022-07-18T15:56:13;2.90;;;1.83;;
21168;SDS011;10742;51.816;8.662;2022-07-18T15:59:34;2.78;;;1.75;;
21168;SDS011;10742;51.816;8.662;2022-07-18T16:02:57;4.13;;;1.83;;
21168;SDS011;10742;51.816;8.662;2022-07-18T16:06:18;1.85;;;1.73;;
21168;SDS011;10742;51.816;8.662;2022-07-18T16:09:39;16.95;;;3.20;;
21168;SDS011;10742;51.816;8.662;2022-07-18T16:13:01;3.70;;;1.90;;
21168;SDS011;10742;51.816;8.662;2022-07-18T16:16:23;1.88;;;1.50;;
21168;SDS011;10742;51.816;8.662;2022-07-18T16:19:45;3.33;;;1.75;;
21168;SDS011;10742;51.816;8.662;2022-07-18T16:23:06;4.75;;;1.73;;
21168;SDS011;10742;51.816;8.662;2022-07-18T16:26:28;2.80;;;1.50;;
21168;SDS011;10742;51.816;8.662;2022-07-18T16:29:50;1.98;;;1.63;;
21168;SDS011;10742;51.816;8.662;2022-07-18T16:33:15;6.60;;;1.83;;
21168;SDS011;10742;51.816;8.662;2022-07-18T16:36:36;4.10;;;1.80;;
21168;SDS011;10742;51.816;8.662;2022-07-18T16:39:58;5.65;;;2.00;;
21168;SDS011;10742;51.816;8.662;2022-07-18T16:43:19;4.03;;;1.80;;
21168;SDS011;10742;51.816;8.662;2022-07-18T16:46:41;4.78;;;1.60;;
21168;SDS011;10742;51.816;8.662;2022-07-18T16:50:03;3.70;;;1.80;;
21168;SDS011;10742;51.816;8.662;2022-07-18T16:53:26;5.63;;;1.90;;
21168;SDS011;10742;51.816;8.662;2022-07-18T16:56:48;10.05;;;1.85;;
21168;SDS011;10742;51.816;8.662;2022-07-18T17:00:10;6.53;;;1.88;;
21168;SDS011;10742;51.816;8.662;2022-07-18T17:03:32;2.28;;;1.58;;
21168;SDS011;10742;51.816;8.662;2022-07-18T17:06:53;2.78;;;1.70;;
21168;SDS011;10742;51.816;8.662;2022-07-18T17:10:15;3.75;;;1.50;;
21168;SDS011;10742;51.816;8.662;2022-07-18T17:13:38;3.83;;;1.77;;
21168;SDS011;10742;51.816;8.662;2022-07-18T17:17:00;4.28;;;2.10;;
21168;SDS011;10742;51.816;8.662;2022-07-18T17:20:22;2.72;;;1.77;;
21168;SDS011;10742;51.816;8.662;2022-07-18T17:23:46;7.10;;;2.20;;
21168;SDS011;10742;51.816;8.662;2022-07-18T17:27:10;4.65;;;1.80;;
21168;SDS011;10742;51.816;8.662;2022-07-18T17:30:33;6.60;;;2.33;;
21168;SDS011;10742;51.816;8.662;2022-07-18T17:33:54;7.55;;;2.30;;
21168;SDS011;10742;51.816;8.662;2022-07-18T17:37:16;3.13;;;1.88;;
21168;SDS011;10742;51.816;8.662;2022-07-18T17:40:39;6.72;;;2.00;;
21168;SDS011;10742;51.816;8.662;2022-07-18T17:44:01;3.58;;;2.13;;
21168;SDS011;10742;51.816;8.662;2022-07-18T17:47:23;3.03;;;2.03;;
21168;SDS011;10742;51.816;8.662;2022-07-18T17:50:44;4.00;;;2.13;;
21168;SDS011;10742;51.816;8.662;2022-07-18T17:54:06;2.63;;;1.85;;
21168;SDS011;10742;51.816;8.662;2022-07-18T17:57:27;2.58;;;1.73;;
21168;SDS011;10742;51.816;8.662;2022-07-18T18:00:51;5.03;;;2.03;;
21168;SDS011;10742;51.816;8.662;2022-07-18T18:04:13;3.75;;;1.83;;
21168;SDS011;10742;51.816;8.662;2022-07-18T18:07:34;4.68;;;2.00;;
21168;SDS011;10742;51.816;8.662;2022-07-18T18:10:55;3.35;;;1.70;;
21168;SDS011;10742;51.816;8.662;2022-07-18T18:14:17;2.85;;;1.60;;
21168;SDS011;10742;51.816;8.662;2022-07-18T18:17:38;2.50;;;1.73;;
21168;SDS011;10742;51.816;8.662;2022-07-18T18:21:00;5.35;;;1.88;;
21168;SDS011;10742;51.816;8.662;2022-07-18T18:24:22;2.10;;;1.88;;
21168;SDS011;10742;51.816;8.662;2022-07-18T18:27:44;9.63;;;2.60;;
21168;SDS011;10742;51.816;8.662;2022-07-18T18:31:05;7.45;;;2.13;;
21168;SDS011;10742;51.816;8.662;2022-07-18T18:34:27;11.27;;;2.42;;
21168;SDS011;10742;51.816;8.662;2022-07-18T18:37:48;4.50;;;1.98;;
21168;SDS011;10742;51.816;8.662;2022-07-18T18:41:11;5.38;;;2.10;;
21168;SDS011;10742;51.816;8.662;2022-07-18T18:44:34;5.68;;;2.08;;
21168;SDS011;10742;51.816;8.662;2022-07-18T18:47:56;5.72;;;2.08;;
21168;SDS011;10742;51.816;8.662;2022-07-18T18:51:17;5.35;;;1.90;;
21168;SDS011;10742;51.816;8.662;2022-07-18T18:54:38;4.97;;;2.30;;
21168;SDS011;10742;51.816;8.662;2022-07-18T18:58:00;6.32;;;2.35;;
21168;SDS011;10742;51.816;8.662;2022-07-18T19:01:21;10.45;;;2.58;;
21168;SDS011;10742;51.816;8.662;2022-07-18T19:04:44;4.28;;;2.40;;
21168;SDS011;10742;51.816;8.662;2022-07-18T19:08:06;5.38;;;2.53;;
21168;SDS011;10742;51.816;8.662;2022-07-18T19:11:27;5.32;;;2.08;;
21168;SDS011;10742;51.816;8.662;2022-07-18T19:14:50;3.90;;;2.03;;
21168;SDS011;10742;51.816;8.662;2022-07-18T19:18:13;3.17;;;2.08;;
21168;SDS011;10742;51.816;8.662;2022-07-18T19:21:35;13.35;;;2.58;;
21168;SDS011;10742;51.816;8.662;2022-07-18T19:24:56;8.13;;;2.20;;
21168;SDS011;10742;51.816;8.662;2022-07-18T19:28:19;7.13;;;2.50;;
21168;SDS011;10742;51.816;8.662;2022-07-18T19:31:40;6.05;;;2.20;;
21168;SDS011;10742;51.816;8.662;2022-07-18T19:35:02;8.38;;;2.40;;
21168;SDS011;10742;51.816;8.662;2022-07-18T19:38:24;8.75;;;2.83;;
21168;SDS011;10742;51.816;8.662;2022-07-18T19:41:46;2.85;;;2.10;;
21168;SDS011;10742;51.816;8.662;2022-07-18T19:45:07;5.65;;;2.45;;
21168;SDS011;10742;51.816;8.662;2022-07-18T19:48:29;5.93;;;2.50;;
21168;SDS011;10742;51.816;8.662;2022-07-18T19:51:51;6.72;;;2.72;;
21168;SDS011;10742;51.816;8.662;2022-07-18T19:55:12;4.60;;;2.78;;
21168;SDS011;10742;51.816;8.662;2022-07-18T19:58:34;3.35;;;2.28;;
21168;SDS011;10742;51.816;8.662;2022-07-18T20:01:55;6.57;;;2.58;;
21168;SDS011;10742;51.816;8.662;2022-07-18T20:05:18;4.78;;;2.63;;
21168;SDS011;10742;51.816;8.662;2022-07-18T20:08:39;5.43;;;2.50;;
21168;SDS011;10742;51.816;8.662;2022-07-18T20:12:00;7.60;;;3.10;;
21168;SDS011;10742;51.816;8.662;2022-07-18T20:15:22;6.18;;;2.63;;
21168;SDS011;10742;51.816;8.662;2022-07-18T20:18:44;5.90;;;2.80;;
21168;SDS011;10742;51.816;8.662;2022-07-18T20:22:07;4.15;;;2.85;;
21168;SDS011;10742;51.816;8.662;2022-07-18T20:25:29;5.65;;;2.38;;
21168;SDS011;10742;51.816;8.662;2022-07-18T20:28:51;8.30;;;2.80;;
21168;SDS011;10742;51.816;8.662;2022-07-18T20:32:13;8.60;;;2.97;;
21168;SDS011;10742;51.816;8.662;2022-07-18T20:35:34;3.47;;;2.38;;
21168;SDS011;10742;51.816;8.662;2022-07-18T20:38:57;6.38;;;2.97;;
21168;SDS011;10742;51.816;8.662;2022-07-18T20:42:19;3.80;;;2.45;;
21168;SDS011;10742;51.816;8.662;2022-07-18T20:45:41;7.75;;;2.80;;
21168;SDS011;10742;51.816;8.662;2022-07-18T20:49:07;7.57;;;2.40;;